Portada
METAR-TAF:

METAR-TAF

Aeropuertos :

Richard B. Russell Airport

Rome, Georgia, Estados Unidos

latitud: 34-20-52N, longitud: 085-09-40W, altitud: 194 m

Observación

El informe se hizo hace 36 minutos, a las 23:53 UTC
Viento calma
Temperatura 8°C
Humedad 81%
Presión 1014 hPa
Visibilidad: 16.1 km
Cielo cubierto a una altura de 6000 ft

METAR: KRMG 242353Z AUTO 00000KT 10SM OVC060 08/05 A2994 RMK AO2 SLP137 T00830050 10128 20083 53009

Hora: 19:29 (00:29 UTC)


TAF: falta

Observaciones y pronósticos meteorológicos de más de 4000 aeropuertos (mensajes METAR y TAF).

Los puntos amarillos y rojos representan las estaciones disponibles.

Ponga el ratón en el punto deseado para ver el nombre de la estación.

Haga clic para ver las observaciones y los pronósticos meteorológicos.

Para cambiar el mapa : haga clic en los botones verdes con una cruz de color negro para hacer un zoom, en el botón verde con un guión para alejar o en las flechas verdes para mapas adyacentes.


METAR-TAF: